createdAt,value
2016-09-12T00:02:04.211Z,40.3
2016-09-12T00:07:04.360Z,40.4
2016-09-12T00:12:04.490Z,40.3
2016-09-12T00:17:04.058Z,40.3
2016-09-12T00:22:03.739Z,40.3
2016-09-12T00:27:04.047Z,40.3
2016-09-12T00:32:03.735Z,40.3
2016-09-12T00:37:04.196Z,40.6
2016-09-12T00:42:03.691Z,40.3
2016-09-12T00:47:04.530Z,40.3
2016-09-12T00:52:03.894Z,40.6
2016-09-12T00:57:03.381Z,40.4
2016-09-12T01:02:03.958Z,40.4
2016-09-12T01:07:03.508Z,40.4
2016-09-12T01:12:04.084Z,40.3
2016-09-12T01:17:04.396Z,40.3
2016-09-12T01:22:04.156Z,40.3
2016-09-12T01:27:03.452Z,40.4
2016-09-12T01:32:04.146Z,40.3
2016-09-12T01:37:04.400Z,40.3
2016-09-12T01:42:03.827Z,40.3
2016-09-12T01:47:04.488Z,40.3
2016-09-12T01:52:04.412Z,40.4
2016-09-12T01:57:03.800Z,40.4
2016-09-12T02:02:04.335Z,40.4
2016-09-12T02:07:04.077Z,40.2
2016-09-12T02:12:04.255Z,40.6
2016-09-12T02:17:03.857Z,40.3
2016-09-12T02:22:03.499Z,40.4
2016-09-12T02:27:04.369Z,40.3
2016-09-12T02:32:04.146Z,40.3
2016-09-12T02:37:04.104Z,40.4
2016-09-12T02:42:04.231Z,40.4
2016-09-12T02:47:03.687Z,40.3
2016-09-12T02:52:04.095Z,40.4
2016-09-12T02:57:04.212Z,40.3
2016-09-12T03:02:03.756Z,40.4
2016-09-12T03:07:03.901Z,40.4
2016-09-12T03:12:04.423Z,40.4
2016-09-12T03:17:03.878Z,40.3
2016-09-12T03:22:04.027Z,40.4
2016-09-12T03:27:04.365Z,40.3
2016-09-12T03:32:03.561Z,40.3
2016-09-12T03:37:03.995Z,40.3
2016-09-12T03:42:04.258Z,40.3
2016-09-12T03:47:03.836Z,40.3
2016-09-12T03:52:04.210Z,40.3
2016-09-12T03:57:04.341Z,40.3
2016-09-12T04:02:03.830Z,40.5
2016-09-12T04:07:04.438Z,40.4
2016-09-12T04:12:03.718Z,40.4
2016-09-12T04:17:04.031Z,40.2
2016-09-12T04:22:03.839Z,40.2
2016-09-12T04:27:04.069Z,40.2
2016-09-12T04:32:21.819Z,40.2
2016-09-12T04:37:03.937Z,40.3
2016-09-12T04:42:04.355Z,40.3
2016-09-12T04:47:32.333Z,40.2
2016-09-12T04:52:03.863Z,40.3
2016-09-12T04:57:03.481Z,40.3
2016-09-12T05:02:33.878Z,40.4
2016-09-12T05:07:04.171Z,40.3
2016-09-12T05:12:04.824Z,40.1
2016-09-12T05:17:32.310Z,40.1
2016-09-12T05:22:03.888Z,40.1
2016-09-12T05:27:04.199Z,40.2
2016-09-12T05:32:31.876Z,40.1
2016-09-12T05:37:03.907Z,40.1
2016-09-12T05:42:03.439Z,40.1
2016-09-12T05:47:26.370Z,40.1
2016-09-12T05:52:03.507Z,40.0
2016-09-12T05:57:04.287Z,40.0
2016-09-12T06:02:31.511Z,40.0
2016-09-12T06:07:03.874Z,40.2
2016-09-12T06:12:04.370Z,39.9
2016-09-12T06:17:35.492Z,39.8
2016-09-12T06:27:04.235Z,39.8
2016-09-12T06:32:37.234Z,39.8
2016-09-12T06:37:04.059Z,39.8
2016-09-12T06:46:18.200Z,39.7
2016-09-12T06:58:56.379Z,39.7
2016-09-12T13:07:04.321Z,43.1
2016-09-12T13:12:03.989Z,44.0
2016-09-12T13:17:37.177Z,44.0
2016-09-12T13:22:03.514Z,42.9
2016-09-12T13:27:03.769Z,42.9
2016-09-12T13:32:32.130Z,43.1
2016-09-12T13:37:03.604Z,43.3
2016-09-12T13:42:04.136Z,43.4
2016-09-12T13:47:34.019Z,43.4
2016-09-12T13:52:03.250Z,43.5
2016-09-12T13:57:04.237Z,43.0
2016-09-12T20:02:04.585Z,40.8
2016-09-12T20:07:03.742Z,40.7
2016-09-12T20:12:03.750Z,40.6
2016-09-12T20:17:03.762Z,40.6
2016-09-12T20:22:03.578Z,40.6
2016-09-12T20:27:03.760Z,40.7
2016-09-12T20:32:03.390Z,40.8
2016-09-12T20:37:03.440Z,40.8
2016-09-12T20:42:03.828Z,40.8
2016-09-12T20:47:04.119Z,40.8
2016-09-12T20:52:04.127Z,40.6
2016-09-12T20:57:04.090Z,40.6
2016-09-12T21:02:03.828Z,40.7
2016-09-12T21:07:03.640Z,40.7
2016-09-12T21:12:03.597Z,40.7
2016-09-12T21:17:03.968Z,41.3
2016-09-12T21:22:03.681Z,40.5
2016-09-12T21:27:04.005Z,40.6
2016-09-12T21:32:03.666Z,40.7
2016-09-12T21:37:03.662Z,40.6
2016-09-12T21:42:04.176Z,40.5
2016-09-12T21:47:03.625Z,40.5
2016-09-12T21:52:03.614Z,40.5
2016-09-12T21:57:04.106Z,40.5
2016-09-12T22:02:03.733Z,40.5
2016-09-12T22:07:03.875Z,40.4
2016-09-12T22:12:03.655Z,40.4
2016-09-12T22:22:03.973Z,40.5
2016-09-12T22:27:03.499Z,40.8
2016-09-12T22:32:03.531Z,40.5
2016-09-12T22:37:04.264Z,40.6
2016-09-12T22:42:03.850Z,40.6
2016-09-12T22:47:03.878Z,40.6
2016-09-12T22:52:03.532Z,40.5
2016-09-12T22:57:03.994Z,40.4
2016-09-12T23:02:03.332Z,40.4
2016-09-12T23:07:04.177Z,40.7
2016-09-12T23:12:03.492Z,40.4
2016-09-12T23:17:03.941Z,40.5
2016-09-12T23:22:04.195Z,40.6
2016-09-12T23:27:04.151Z,40.6
2016-09-12T23:32:04.383Z,40.7
2016-09-12T23:37:04.386Z,40.5
2016-09-12T23:42:03.719Z,40.4
2016-09-12T23:47:03.896Z,40.4
2016-09-12T23:52:04.273Z,40.4
2016-09-12T23:57:03.669Z,40.2
